Time;durP1;ratioP1;P1;durP2;ratioP2;P2;SDS_P1;SDS_P2;PMS_P1;PMS_P2;Temp;Humidity;BMP_temperature;BMP_pressure;BME280_temperature;BME280_humidity;BME280_pressure;Samples;Min_cycle;Max_cycle;Signal;HPM_P1;HPM_P2
2022/04/12 00:01:10;;;;;;;22.10;10.87;;;;;;;-2.65;69.10;99905.75;1702007;83;21445;-61
2022/04/12 00:03:37;;;;;;;35.20;11.22;;;;;;;-2.65;69.09;99907.03;1715461;82;20974;-61
2022/04/12 00:06:03;;;;;;;20.20;11.88;;;;;;;-2.67;69.17;99913.81;1702500;83;20984;-61
2022/04/12 00:08:30;;;;;;;21.80;11.40;;;;;;;-2.69;69.12;99916.77;1703410;83;21117;-61
2022/04/12 00:10:57;;;;;;;16.00;9.40;;;;;;;-2.73;69.11;99916.32;1701966;83;21010;-61
2022/04/12 00:13:23;;;;;;;20.90;9.33;;;;;;;-2.80;69.13;99917.09;1696259;83;21587;-62
2022/04/12 00:15:50;;;;;;;17.85;9.15;;;;;;;-2.81;69.31;99917.94;1703903;83;21326;-61
2022/04/12 00:21:03;;;;;;;22.50;10.08;;;;;;;-2.81;69.51;99925.61;1702317;83;21070;-60
2022/04/12 00:23:30;;;;;;;20.82;10.30;;;;;;;-2.79;69.65;99926.49;1703066;82;21680;-61
2022/04/12 00:25:57;;;;;;;25.82;10.08;;;;;;;-2.78;69.65;99917.97;1700129;83;23489;-60
2022/04/12 00:28:24;;;;;;;19.05;10.18;;;;;;;-2.76;69.68;99926.52;1682865;83;21105;-61
2022/04/12 00:30:50;;;;;;;21.90;9.57;;;;;;;-2.74;69.84;99927.40;1695083;83;21602;-61
2022/04/12 00:33:17;;;;;;;20.20;8.83;;;;;;;-2.74;69.86;99924.84;1696583;82;20974;-61
2022/04/12 00:35:43;;;;;;;21.68;10.10;;;;;;;-2.75;69.90;99926.94;1702716;83;20984;-61
2022/04/12 00:38:22;;;;;;;21.70;10.33;;;;;;;-2.76;69.98;99929.07;1703318;83;21544;-60
2022/04/12 00:40:48;;;;;;;20.43;9.58;;;;;;;-2.75;69.94;99935.89;1702728;83;21530;-61
2022/04/12 00:43:20;;;;;;;20.80;10.00;;;;;;;-2.73;70.00;99931.66;1703608;82;21603;-60
2022/04/12 00:45:47;;;;;;;17.77;8.80;;;;;;;-2.72;70.14;99934.64;1705197;82;21597;-59
2022/04/12 00:48:14;;;;;;;20.50;8.70;;;;;;;-2.69;70.27;99942.33;1705765;82;21486;-60
2022/04/12 00:50:42;;;;;;;19.75;7.95;;;;;;;-2.69;70.28;99933.39;1693564;83;21120;-60
2022/04/12 00:53:09;;;;;;;;;;;;;;;-2.66;70.39;99941.50;1701535;83;20966;-59
2022/04/12 00:55:36;;;;;;;15.05;7.78;;;;;;;-2.66;70.40;99936.00;1701517;83;20447;-59
2022/04/12 00:58:07;;;;;;;15.05;7.55;;;;;;;-2.64;70.42;99931.73;1668182;84;28202;-60
2022/04/12 01:00:35;;;;;;;21.95;8.18;;;;;;;-2.64;70.49;99939.41;1681515;84;21050;-60
2022/04/12 01:03:02;;;;;;;;;;;;;;;-2.61;70.64;99926.65;1710379;82;21598;-60
2022/04/12 01:05:28;;;;;;;;;;;;;;;-2.59;70.85;99928.80;1673376;84;20138;-60
2022/04/12 01:07:56;;;;;;;13.47;7.43;;;;;;;-2.59;70.91;99936.47;1704781;82;20185;-60
2022/04/12 01:10:24;;;;;;;13.22;6.50;;;;;;;-2.55;70.94;99936.95;1698957;83;21066;-60
2022/04/12 01:12:53;;;;;;;;;;;;;;;-2.55;70.86;99944.62;1692689;83;21151;-60
2022/04/12 01:15:23;;;;;;;15.38;7.62;;;;;;;-2.56;70.92;99941.61;1682678;83;22288;-60
2022/04/12 01:17:51;;;;;;;17.95;8.23;;;;;;;-2.59;70.76;99935.20;1696138;83;21156;-60
2022/04/12 01:20:24;;;;;;;24.05;8.53;;;;;;;-2.67;70.53;99940.66;1667325;84;20986;-60
2022/04/12 01:23:02;;;;;;;18.32;8.23;;;;;;;-2.76;70.49;99946.97;1695564;83;21013;-61
2022/04/12 01:25:29;;;;;;;14.43;8.00;;;;;;;-2.86;70.56;99947.70;1691614;84;21062;-60
2022/04/12 01:27:56;;;;;;;16.52;7.53;;;;;;;-2.91;70.83;99946.39;1697507;83;21062;-60
2022/04/12 01:30:23;;;;;;;15.83;8.28;;;;;;;-2.92;70.95;99946.78;1696389;83;20986;-60
2022/04/12 01:32:50;;;;;;;16.65;8.08;;;;;;;-2.92;71.05;99944.23;1698168;83;21930;-60
2022/04/12 01:35:17;;;;;;;19.32;8.13;;;;;;;-2.92;71.10;99946.78;1696067;83;21129;-60
2022/04/12 01:37:43;;;;;;;18.00;7.53;;;;;;;-2.93;71.13;99942.53;1694811;83;20976;-60
2022/04/12 01:40:11;;;;;;;22.67;9.60;;;;;;;-2.96;71.24;99945.05;1694772;83;21492;-60
2022/04/12 01:42:39;;;;;;;23.70;7.47;;;;;;;-2.96;71.37;99950.16;1690707;83;21022;-60
2022/04/12 01:45:08;;;;;;;20.62;7.85;;;;;;;-2.94;71.42;99951.05;1693272;83;21526;-60
2022/04/12 01:47:36;;;;;;;23.80;8.50;;;;;;;-2.93;71.48;99960.41;1692420;83;21024;-60
2022/04/12 01:50:04;;;;;;;18.75;8.38;;;;;;;-2.90;71.57;99961.30;1694013;83;21164;-60
2022/04/12 01:52:33;;;;;;;19.15;7.47;;;;;;;-2.87;71.66;99956.22;1692642;83;21161;-61
2022/04/12 01:55:02;;;;;;;18.45;7.80;;;;;;;-2.84;71.70;99961.36;1692284;83;20978;-60
2022/04/12 01:57:29;;;;;;;14.00;7.40;;;;;;;-2.84;71.63;99957.09;1691880;83;20950;-60
2022/04/12 01:59:58;;;;;;;;;;;;;;;-2.82;71.72;99957.13;1698014;83;21569;-60
2022/04/12 02:02:24;;;;;;;24.15;9.10;;;;;;;-2.78;71.90;99962.70;1668652;84;20192;-60
2022/04/12 02:04:51;;;;;;;25.50;9.43;;;;;;;-2.77;71.79;99958.04;1668527;85;21463;-61
2022/04/12 02:07:18;;;;;;;22.00;8.53;;;;;;;-2.77;71.73;99960.59;1694970;84;20915;-60
2022/04/12 02:09:44;;;;;;;15.13;8.63;;;;;;;-2.79;71.73;99966.10;1695714;83;21040;-60
2022/04/12 02:12:11;;;;;;;18.90;8.03;;;;;;;-2.82;71.67;99972.46;1696210;83;21015;-60
2022/04/12 02:14:38;;;;;;;15.72;7.28;;;;;;;-2.83;71.66;99970.73;1689592;83;21517;-60
2022/04/12 02:17:05;;;;;;;14.78;7.28;;;;;;;-2.86;71.59;99973.25;1664543;85;21183;-61
2022/04/12 02:19:32;;;;;;;19.97;9.30;;;;;;;-2.86;71.72;99975.80;1671769;84;21078;-61
2022/04/12 02:21:58;;;;;;;16.20;7.63;;;;;;;-2.83;71.90;99975.84;1670320;85;21052;-60
2022/04/12 02:24:25;;;;;;;16.90;7.90;;;;;;;-2.80;72.03;99972.03;1673779;84;21076;-61
2022/04/12 02:26:51;;;;;;;16.43;7.57;;;;;;;-2.76;72.26;99970.81;1672599;84;21105;-60
2022/04/12 02:29:18;;;;;;;16.40;8.20;;;;;;;-2.72;72.35;99971.70;1687827;83;22246;-60
2022/04/12 02:31:45;;;;;;;20.70;8.17;;;;;;;-2.68;72.47;99978.57;1650202;85;21096;-60
2022/04/12 02:34:11;;;;;;;12.68;7.42;;;;;;;-2.64;72.76;99979.03;1670673;84;21456;-60
2022/04/12 02:36:38;;;;;;;20.57;8.17;;;;;;;-2.58;72.75;99981.64;1669631;84;21066;-61
2022/04/12 02:39:05;;;;;;;23.85;7.80;;;;;;;-2.55;72.69;99985.53;1684356;83;21031;-61
2022/04/12 02:41:32;;;;;;;24.12;7.85;;;;;;;-2.54;72.70;99989.80;1687572;83;21484;-60
2022/04/12 02:43:59;;;;;;;17.17;7.67;;;;;;;-2.50;72.80;99994.08;1663198;85;21018;-60
2022/04/12 02:46:26;;;;;;;19.47;6.60;;;;;;;-2.45;72.83;99992.00;1672081;84;21618;-60
2022/04/12 02:48:53;;;;;;;24.00;7.50;;;;;;;-2.42;72.83;99993.31;1688613;83;21132;-60
2022/04/12 02:51:19;;;;;;;21.35;7.70;;;;;;;-2.40;72.91;99989.08;1686649;83;21658;-61
2022/04/12 02:53:46;;;;;;;31.50;8.07;;;;;;;-2.37;72.96;99989.10;1683724;83;21115;-60
2022/04/12 02:56:13;;;;;;;19.57;7.00;;;;;;;-2.35;73.02;99995.06;1681705;83;21572;-60
2022/04/12 02:58:40;;;;;;;17.62;7.40;;;;;;;-2.32;73.05;99992.56;1657001;84;20979;-60
2022/04/12 03:01:07;;;;;;;17.90;6.97;;;;;;;-2.32;73.15;99989.58;1660873;85;21469;-62
2022/04/12 03:03:34;;;;;;;14.47;6.67;;;;;;;-2.30;73.14;99994.69;1688704;83;21097;-60
2022/04/12 03:06:01;;;;;;;14.50;6.33;;;;;;;-2.30;73.24;99995.97;1680137;83;21106;-60
2022/04/12 03:08:27;;;;;;;12.47;6.03;;;;;;;-2.30;73.32;99995.97;1683441;83;20992;-60
2022/04/12 03:10:54;;;;;;;12.30;6.10;;;;;;;-2.28;73.36;99999.41;1689758;83;21649;-60
2022/04/12 03:13:21;;;;;;;16.83;7.20;;;;;;;-2.26;73.46;100002.84;1663792;85;21232;-60
2022/04/12 03:15:47;;;;;;;13.70;5.42;;;;;;;-2.25;73.56;99996.88;1698188;83;21073;-60
2022/04/12 03:18:16;;;;;;;10.67;5.13;;;;;;;-2.25;73.59;100001.56;1694925;83;21616;-60
2022/04/12 03:20:43;;;;;;;11.75;5.00;;;;;;;-2.21;73.72;100002.87;1694550;83;20935;-60
2022/04/12 03:23:10;;;;;;;9.75;4.17;;;;;;;-2.19;73.69;99996.92;1695294;83;20982;-60
2022/04/12 03:25:37;;;;;;;12.68;4.70;;;;;;;-2.17;73.77;100000.36;1701667;83;21140;-60
2022/04/12 03:28:05;;;;;;;11.10;5.40;;;;;;;-2.17;73.77;100001.64;1693578;83;21630;-60
2022/04/12 03:30:31;;;;;;;11.33;5.42;;;;;;;-2.18;73.76;99998.66;1697618;83;22040;-60
2022/04/12 03:32:58;;;;;;;13.40;5.03;;;;;;;-2.18;73.79;99999.94;1702988;83;22738;-60
2022/04/12 03:35:24;;;;;;;13.33;5.07;;;;;;;-2.17;73.82;100002.92;1701145;83;21058;-61
2022/04/12 03:38:01;;;;;;;10.27;4.73;;;;;;;-2.16;73.91;99996.95;1661430;84;21624;-60
2022/04/12 03:40:27;;;;;;;14.38;4.78;;;;;;;-2.14;73.90;99997.83;1697318;83;21188;-60
2022/04/12 03:42:52;;;;;;;18.00;6.50;;;;;;;-2.15;73.90;100005.08;1697653;83;21465;-60
2022/04/12 03:45:19;;;;;;;21.17;6.53;;;;;;;-2.14;73.94;100005.50;1698567;83;21274;-61
2022/04/12 03:47:45;;;;;;;21.35;5.90;;;;;;;-2.13;73.94;100004.67;1701237;83;21050;-60
2022/04/12 03:50:12;;;;;;;14.60;6.00;;;;;;;-2.13;74.05;100003.40;1699783;83;21578;-61
2022/04/12 03:52:39;;;;;;;21.37;7.43;;;;;;;-2.04;74.18;100009.86;1667285;85;21033;-60
2022/04/12 03:55:10;;;;;;;21.80;7.37;;;;;;;-2.04;74.18;100009.86;1699489;83;22045;-60
2022/04/12 03:57:35;;;;;;;28.07;7.62;;;;;;;-2.01;74.21;100008.19;1697960;83;20951;-60
2022/04/12 04:00:10;;;;;;;43.55;9.08;;;;;;;-1.97;74.10;100007.34;1697708;83;21128;-60
2022/04/12 04:02:37;;;;;;;24.35;9.35;;;;;;;-2.02;73.81;100016.25;1666415;84;21096;-60
2022/04/12 04:05:05;;;;;;;31.90;8.83;;;;;;;-2.05;73.82;100011.97;1704571;83;21567;-60
2022/04/12 04:07:32;;;;;;;21.85;7.80;;;;;;;-1.99;74.01;100011.59;1699307;83;21089;-60
2022/04/12 04:09:59;;;;;;;25.00;8.60;;;;;;;-1.65;74.53;100018.70;1697879;83;21062;-60
2022/04/12 04:12:26;;;;;;;45.70;9.23;;;;;;;-1.16;74.70;100024.09;1697880;83;21686;-60
2022/04/12 04:14:56;;;;;;;35.73;7.45;;;;;;;-0.65;74.84;100018.32;1701816;82;20966;-60
2022/04/12 04:17:23;;;;;;;57.58;8.60;;;;;;;0.02;75.06;100018.42;1701082;82;21653;-60
2022/04/12 04:19:49;;;;;;;66.67;8.63;;;;;;;0.80;74.87;100025.19;1674625;83;21002;-60
2022/04/12 04:22:17;;;;;;;35.35;7.22;;;;;;;1.43;74.36;100023.23;1699572;83;21440;-60
2022/04/12 04:24:44;;;;;;;25.90;7.65;;;;;;;2.19;74.33;100019.27;1701591;83;21128;-61
2022/04/12 04:27:11;;;;;;;21.12;5.78;;;;;;;2.96;74.09;100020.23;1702503;82;21124;-61
2022/04/12 04:29:38;;;;;;;38.05;6.25;;;;;;;3.83;73.97;100023.39;1701389;82;21046;-61
2022/04/12 04:32:07;;;;;;;17.73;6.65;;;;;;;4.63;73.63;100021.20;1674994;84;21147;-60
2022/04/12 04:34:34;;;;;;;17.27;5.37;;;;;;;5.49;73.71;100016.91;1697422;83;21140;-61
2022/04/12 04:37:01;;;;;;;21.57;4.90;;;;;;;6.32;73.00;100011.09;1703635;83;21467;-61
2022/04/12 04:39:28;;;;;;;10.23;4.10;;;;;;;7.04;72.83;100020.02;1697616;83;21442;-62
2022/04/12 04:41:55;;;;;;;9.08;3.95;;;;;;;7.67;72.41;100021.61;1705118;82;21012;-61
2022/04/12 04:44:21;;;;;;;9.93;3.92;;;;;;;8.24;72.03;100023.28;1700026;82;21191;-61
2022/04/12 04:46:48;;;;;;;8.40;4.30;;;;;;;8.94;72.32;100027.85;1700344;82;21542;-61
2022/04/12 04:49:15;;;;;;;6.95;4.05;;;;;;;9.61;71.63;100023.20;1704841;82;21069;-61
2022/04/12 04:51:42;;;;;;;15.20;4.47;;;;;;;10.13;71.67;100023.36;1700905;83;21002;-62
2022/04/12 04:54:10;;;;;;;6.87;4.05;;;;;;;10.55;71.06;100025.13;1699200;82;21077;-62
2022/04/12 04:56:38;;;;;;;11.22;5.28;;;;;;;11.07;71.01;100026.80;1701352;83;21914;-61
2022/04/12 04:59:06;;;;;;;6.87;4.10;;;;;;;11.63;70.89;100028.59;1699265;82;21180;-61
2022/04/12 05:01:33;;;;;;;12.23;4.22;;;;;;;11.85;70.01;100028.01;1698450;83;21014;-61
2022/04/12 05:04:00;;;;;;;8.50;3.22;;;;;;;12.21;69.83;100034.13;1700740;82;21180;-61
2022/04/12 05:06:48;;;;;;;10.38;4.47;;;;;;;12.42;69.44;100036.17;1700840;83;21099;-63
2022/04/12 05:09:15;;;;;;;10.38;4.20;;;;;;;12.56;68.82;100037.63;1712134;82;23185;-60
2022/04/12 05:11:44;;;;;;;11.68;4.60;;;;;;;13.03;69.72;100042.22;1713820;81;21083;-61
2022/04/12 05:14:11;;;;;;;8.95;4.33;;;;;;;13.49;69.60;100037.16;1700631;81;21530;-60
2022/04/12 05:16:37;;;;;;;13.13;4.95;;;;;;;14.02;69.80;100041.22;1715795;81;20977;-61
2022/04/12 05:19:04;;;;;;;10.32;4.08;;;;;;;14.46;69.18;100042.25;1708310;82;21272;-61
2022/04/12 05:21:31;;;;;;;10.60;4.15;;;;;;;14.68;68.15;100041.88;1710275;81;21450;-61
2022/04/12 05:23:57;;;;;;;9.55;4.37;;;;;;;14.41;67.12;100045.13;1710884;82;21454;-61
2022/04/12 05:26:25;;;;;;;14.83;5.15;;;;;;;14.38;66.57;100050.56;1710120;82;21015;-62
2022/04/12 05:28:52;;;;;;;11.48;4.47;;;;;;;14.50;67.66;100055.09;1696186;82;21014;-61
2022/04/12 05:31:19;;;;;;;8.88;3.75;;;;;;;14.84;66.48;100047.88;1711997;82;21031;-61
2022/04/12 05:33:46;;;;;;;8.40;3.62;;;;;;;14.75;65.62;100053.70;1711518;82;21174;-61
2022/04/12 05:36:13;;;;;;;9.88;3.85;;;;;;;14.69;65.43;100052.75;1711567;81;20965;-61
2022/04/12 05:38:44;;;;;;;13.48;4.72;;;;;;;14.47;64.93;100064.47;1692259;82;21599;-61
2022/04/12 05:41:11;;;;;;;5.40;2.87;;;;;;;14.70;66.51;100058.38;1711548;82;20961;-60
2022/04/12 05:43:37;;;;;;;8.48;3.70;;;;;;;14.88;65.48;100062.55;1711979;82;21137;-60
2022/04/12 05:46:05;;;;;;;7.78;3.42;;;;;;;15.10;65.98;100062.11;1711144;82;21112;-60
2022/04/12 05:48:32;;;;;;;8.00;3.42;;;;;;;15.26;65.33;100074.31;1695236;83;21594;-60
2022/04/12 05:50:58;;;;;;;8.08;3.92;;;;;;;15.32;64.68;100076.12;1720808;81;21048;-60
2022/04/12 05:53:25;;;;;;;8.65;3.85;;;;;;;15.62;64.77;100075.98;1710796;82;20931;-60
2022/04/12 05:55:52;;;;;;;10.10;4.25;;;;;;;15.66;64.74;100078.81;1714258;82;21052;-59
2022/04/12 05:58:19;;;;;;;11.28;3.50;;;;;;;15.91;64.61;100084.34;1691203;84;21197;-61
2022/04/12 06:00:46;;;;;;;6.92;3.95;;;;;;;15.83;63.45;100090.95;1722592;81;21021;-61
2022/04/12 06:03:13;;;;;;;10.80;3.95;;;;;;;15.72;63.15;100095.20;1718014;82;21140;-59
2022/04/12 06:05:39;;;;;;;10.10;4.35;;;;;;;15.59;63.00;100098.55;1716222;82;21102;-61
2022/04/12 06:08:07;;;;;;;;;;;;;;;15.64;63.23;100100.91;1716335;81;20964;-60
2022/04/12 06:10:34;;;;;;;8.43;3.98;;;;;;;15.74;62.13;100104.70;1696529;84;21091;-60
2022/04/12 06:13:01;;;;;;;;;;;;;;;15.68;62.59;100107.69;1720058;82;21027;-60
2022/04/12 06:15:28;;;;;;;9.88;4.05;;;;;;;15.68;61.81;100112.95;1711367;82;20077;-60
2022/04/12 06:17:54;;;;;;;9.85;3.87;;;;;;;15.86;62.31;100105.71;1714019;82;21038;-60
2022/04/12 06:20:21;;;;;;;8.30;4.00;;;;;;;15.77;61.55;100115.04;1719926;83;21496;-60
2022/04/12 06:22:48;;;;;;;12.73;3.87;;;;;;;15.70;61.02;100113.72;1713030;82;21528;-61
2022/04/12 06:25:19;;;;;;;8.90;3.92;;;;;;;15.65;61.26;100115.75;1707009;82;21018;-61
2022/04/12 06:27:50;;;;;;;12.53;3.87;;;;;;;15.73;61.10;100116.16;1709527;83;21153;-61
2022/04/12 06:30:17;;;;;;;11.90;4.90;;;;;;;15.67;60.74;100121.77;1685869;83;21124;-61
2022/04/12 06:32:48;;;;;;;16.67;4.53;;;;;;;15.73;60.88;100116.16;1685469;83;21098;-61
2022/04/12 06:35:16;;;;;;;9.28;3.85;;;;;;;15.79;60.14;100119.71;1724769;82;21008;-60
2022/04/12 06:37:45;;;;;;;10.45;3.98;;;;;;;15.74;59.35;100124.45;1714301;81;21011;-60
2022/04/12 06:40:15;;;;;;;10.20;3.95;;;;;;;15.54;59.40;100119.52;1719120;82;21020;-60
2022/04/12 06:42:42;;;;;;;8.78;3.87;;;;;;;15.67;59.59;100122.61;1714095;82;20963;-60
2022/04/12 06:45:13;;;;;;;11.38;3.70;;;;;;;15.72;59.11;100122.37;1714795;82;21111;-61
2022/04/12 06:47:43;;;;;;;10.55;3.67;;;;;;;15.63;58.46;100126.87;1707607;82;21102;-61
2022/04/12 06:50:13;;;;;;;7.12;3.65;;;;;;;15.83;59.15;100125.18;1714518;82;21150;-61
2022/04/12 06:52:43;;;;;;;9.60;3.40;;;;;;;15.50;56.88;100125.92;1712057;82;21076;-62
2022/04/12 06:55:13;;;;;;;10.65;3.47;;;;;;;14.88;57.12;100130.91;1713294;81;21096;-62
2022/04/12 06:57:43;;;;;;;8.05;3.67;;;;;;;14.73;57.69;100128.71;1714207;81;21526;-63
2022/04/12 07:00:24;;;;;;;;;;;;;;;;;;;;;
2022/04/12 07:03:10;;;;;;;11.12;3.20;;;;;;;14.86;57.64;100129.30;1631674;85;21034;-61
2022/04/12 07:05:38;;;;;;;9.15;3.45;;;;;;;14.98;57.17;100141.27;1614900;86;21069;-60
2022/04/12 07:08:10;;;;;;;8.13;3.42;;;;;;;14.64;56.54;100142.83;1664364;84;21021;-62
2022/04/12 07:10:42;;;;;;;11.83;3.55;;;;;;;14.63;57.13;100141.16;1657876;85;20988;-63
2022/04/12 07:13:11;;;;;;;7.12;3.37;;;;;;;14.39;55.52;100149.44;1657681;84;21140;-60
2022/04/12 07:15:41;;;;;;;9.83;4.35;;;;;;;13.99;56.47;100149.03;1656525;84;21526;-60
2022/04/12 07:18:12;;;;;;;8.35;3.90;;;;;;;13.48;55.73;100149.59;1662466;83;21130;-60
2022/04/12 07:20:41;;;;;;;6.80;3.30;;;;;;;13.10;56.58;100153.68;1661176;84;21059;-59
2022/04/12 07:23:09;;;;;;;6.45;3.08;;;;;;;12.87;56.43;100152.22;1654199;84;21051;-60
2022/04/12 07:25:39;;;;;;;8.80;3.17;;;;;;;12.57;56.56;100154.57;1642463;84;21630;-60
2022/04/12 07:28:08;;;;;;;9.68;3.37;;;;;;;12.36;56.36;100163.48;1659048;83;21091;-59
2022/04/12 07:30:38;;;;;;;5.80;2.33;;;;;;;11.99;55.99;100158.66;1656400;84;20975;-60
2022/04/12 07:33:26;;;;;;;6.85;3.12;;;;;;;11.59;55.75;100156.48;1655795;84;20968;-62
2022/04/12 07:35:55;;;;;;;8.70;2.60;;;;;;;11.38;56.17;100160.45;1672548;83;21261;-60
2022/04/12 07:38:24;;;;;;;3.80;1.70;;;;;;;11.22;55.88;100159.41;1660979;83;21143;-60
2022/04/12 07:40:55;;;;;;;6.67;1.20;;;;;;;11.08;54.36;100166.98;1669559;84;21819;-61
2022/04/12 07:43:45;;;;;;;4.30;1.72;;;;;;;10.21;52.82;100166.11;1664419;85;21111;-60
2022/04/12 07:46:15;;;;;;;4.03;1.40;;;;;;;9.67;54.12;100172.50;1722583;82;21803;-60
2022/04/12 07:48:45;;;;;;;6.37;1.52;;;;;;;9.30;54.14;100167.27;1718695;82;21031;-61
2022/04/12 07:51:14;;;;;;;4.87;1.90;;;;;;;9.15;54.26;100174.71;1720116;82;21758;-60
2022/04/12 07:53:45;;;;;;;6.50;1.95;;;;;;;9.09;53.74;100181.44;1685885;83;21584;-61
2022/04/12 07:56:14;;;;;;;9.23;2.05;;;;;;;8.85;53.95;100176.61;1711212;82;21033;-61
2022/04/12 07:58:42;;;;;;;2.33;1.22;;;;;;;9.10;54.69;100181.86;1709313;82;21082;-61
2022/04/12 08:01:11;;;;;;;4.33;1.82;;;;;;;9.35;54.71;100175.78;1708086;82;21173;-62
2022/04/12 08:03:40;;;;;;;3.30;1.40;;;;;;;9.54;54.67;100178.59;1688398;83;21555;-59
2022/04/12 08:06:09;;;;;;;6.70;1.80;;;;;;;9.65;52.63;100176.45;1710623;82;21669;-60
2022/04/12 08:08:37;;;;;;;4.80;1.47;;;;;;;9.30;51.84;100175.08;1717048;81;21620;-60
2022/04/12 08:11:07;;;;;;;7.78;1.72;;;;;;;8.87;51.34;100172.64;1686902;81;21139;-61
2022/04/12 08:13:37;;;;;;;4.85;1.30;;;;;;;8.54;52.06;100176.72;1721548;82;21085;-60
2022/04/12 08:16:07;;;;;;;3.25;1.42;;;;;;;8.33;50.43;100185.19;1689268;83;22265;-62
2022/04/12 08:18:35;;;;;;;4.35;1.50;;;;;;;7.91;50.20;100179.06;1712446;82;21066;-61
2022/04/12 08:21:04;;;;;;;3.27;1.47;;;;;;;7.93;52.09;100179.42;1711143;82;20982;-61
2022/04/12 08:23:32;;;;;;;5.35;1.55;;;;;;;8.32;52.42;100186.06;1711019;82;21053;-61
2022/04/12 08:26:00;;;;;;;3.67;1.20;;;;;;;8.54;52.56;100189.73;1709141;82;21107;-61
2022/04/12 08:28:28;;;;;;;3.58;1.20;;;;;;;8.90;52.94;100186.41;1711294;82;21981;-61
2022/04/12 08:30:56;;;;;;;4.33;1.50;;;;;;;9.09;52.40;100192.31;1711519;82;22140;-61
2022/04/12 08:33:26;;;;;;;3.00;1.15;;;;;;;9.39;52.52;100195.63;1682568;83;21019;-60
2022/04/12 08:35:56;;;;;;;5.03;1.30;;;;;;;9.59;52.78;100187.95;1707274;82;21012;-59
2022/04/12 08:38:27;;;;;;;5.15;1.27;;;;;;;9.98;52.29;100186.10;1708978;82;21004;-61
2022/04/12 08:40:59;;;;;;;5.60;1.70;;;;;;;9.98;52.29;100186.10;1686698;83;21036;-60
2022/04/12 08:43:30;;;;;;;3.08;1.50;;;;;;;10.11;52.58;100188.23;1713656;82;21364;-60
2022/04/12 08:46:17;;;;;;;4.60;1.60;;;;;;;10.26;52.50;100181.99;1693332;82;21015;-60
2022/04/12 08:48:47;;;;;;;;;;;;;;;10.37;52.39;100186.83;1641861;85;21086;-60
2022/04/12 08:51:14;;;;;;;3.22;1.05;;;;;;;10.49;52.16;100184.19;1603595;87;20900;-61
2022/04/12 08:53:43;;;;;;;4.72;1.47;;;;;;;10.69;52.42;100189.92;1636319;86;23577;-60
2022/04/12 08:56:12;;;;;;;8.33;1.60;;;;;;;10.75;52.11;100189.66;1643751;85;20991;-61
2022/04/12 08:58:40;;;;;;;4.03;1.67;;;;;;;10.81;51.86;100184.22;1635150;86;21012;-61
2022/04/12 09:01:08;;;;;;;5.30;1.50;;;;;;;10.92;52.17;100185.94;1615044;87;20999;-60
2022/04/12 09:03:36;;;;;;;5.33;1.42;;;;;;;11.01;51.90;100172.06;1624955;87;21057;-61
2022/04/12 09:06:04;;;;;;;2.33;1.17;;;;;;;11.16;51.82;100194.95;1593918;86;20986;-61
2022/04/12 09:08:35;;;;;;;2.62;1.17;;;;;;;11.14;49.86;100199.39;1623825;86;20989;-61
2022/04/12 09:11:07;;;;;;;2.87;1.35;;;;;;;10.69;50.33;100202.52;1623794;86;20981;-60
2022/04/12 09:13:38;;;;;;;4.25;1.47;;;;;;;10.37;50.17;100194.66;1625498;86;22291;-60
2022/04/12 09:16:11;;;;;;;3.40;1.37;;;;;;;9.98;49.10;100188.71;1624718;86;21063;-60
2022/04/12 09:18:43;;;;;;;4.78;1.05;;;;;;;10.01;50.88;100202.09;1622400;86;21093;-60
2022/04/12 09:21:19;;;;;;;4.42;1.00;;;;;;;10.01;50.88;100202.09;1625916;86;21025;-61
2022/04/12 09:23:53;;;;;;;8.00;1.35;;;;;;;10.36;50.82;100192.94;1623723;86;21045;-61
2022/04/12 09:26:30;;;;;;;3.98;1.02;;;;;;;10.65;50.71;100190.97;1622541;86;21049;-60
2022/04/12 09:29:14;;;;;;;2.10;1.05;;;;;;;10.74;50.44;100173.61;1628899;86;21756;-61
2022/04/12 09:31:29;;;;;;;3.25;1.17;;;;;;;10.96;50.18;100186.19;1621648;86;21563;-61
2022/04/12 09:33:57;;;;;;;3.05;1.30;;;;;;;10.88;49.77;100185.65;1625048;87;21084;-61
2022/04/12 09:36:25;;;;;;;3.70;1.27;;;;;;;10.90;50.02;100196.89;1620773;86;21102;-61
2022/04/12 09:39:00;;;;;;;3.20;1.17;;;;;;;10.98;50.29;100190.90;1625993;86;21097;-60
2022/04/12 09:41:30;;;;;;;2.45;1.07;;;;;;;10.97;49.54;100195.71;1625827;86;20976;-61
2022/04/12 09:44:19;;;;;;;2.25;1.27;;;;;;;11.02;50.15;100197.30;1622704;86;21151;-61
2022/04/12 09:46:50;;;;;;;3.25;1.10;;;;;;;11.16;49.81;100192.34;1683233;83;20993;-61
2022/04/12 09:49:18;;;;;;;5.00;1.02;;;;;;;11.20;49.44;100195.20;1673361;83;21768;-61
2022/04/12 09:51:49;;;;;;;3.90;1.45;;;;;;;11.20;49.44;100195.20;1658815;84;21159;-61
2022/04/12 09:54:25;;;;;;;3.30;1.27;;;;;;;11.19;49.31;100196.13;1685123;84;20929;-62
2022/04/12 09:57:03;;;;;;;4.70;1.30;;;;;;;11.03;49.00;100193.77;1684462;83;21924;-59
2022/04/12 09:59:37;;;;;;;3.20;1.45;;;;;;;10.90;49.12;100201.27;1655072;85;21092;-60
2022/04/12 10:02:06;;;;;;;11.28;1.37;;;;;;;10.98;49.43;100197.44;1692842;84;21022;-61
2022/04/12 10:04:36;;;;;;;2.40;1.05;;;;;;;11.10;49.45;100179.08;1694550;84;21113;-61
2022/04/12 10:07:09;;;;;;;4.35;1.77;;;;;;;11.40;49.34;100187.38;1682968;83;21064;-60
2022/04/12 10:09:38;;;;;;;2.15;1.20;;;;;;;11.52;49.02;100193.00;1689249;84;21381;-60
2022/04/12 10:12:07;;;;;;;12.20;1.95;;;;;;;11.63;49.26;100192.91;1689540;83;21040;-60
2022/04/12 10:14:36;;;;;;;5.50;1.77;;;;;;;11.74;49.32;100187.67;1665462;83;21609;-60
2022/04/12 10:17:05;;;;;;;2.72;1.50;;;;;;;11.84;49.10;100192.40;1694420;83;20939;-60
2022/04/12 10:19:58;;;;;;;6.55;1.10;;;;;;;11.74;48.78;100191.13;1693626;84;20958;-60
2022/04/12 10:22:17;;;;;;;4.65;1.00;;;;;;;11.79;49.06;100187.86;1672620;84;21499;-60
2022/04/12 10:24:46;;;;;;;3.08;0.93;;;;;;;11.91;48.64;100194.80;1683392;83;21016;-60
2022/04/12 10:27:14;;;;;;;18.05;1.70;;;;;;;11.96;48.83;100196.72;1684185;83;21044;-60
2022/04/12 10:30:08;;;;;;;1.82;0.90;;;;;;;12.05;48.66;100197.63;1695735;83;21233;-61
2022/04/12 10:32:36;;;;;;;2.87;0.80;;;;;;;12.09;48.51;100196.56;1610657;87;21601;-61
2022/04/12 10:35:04;;;;;;;2.25;0.98;;;;;;;12.10;48.25;100193.05;1606383;87;21119;-61
2022/04/12 10:37:33;;;;;;;3.08;0.90;;;;;;;12.11;48.01;100193.42;1610456;87;21018;-61
2022/04/12 10:40:06;;;;;;;1.75;0.80;;;;;;;12.11;48.16;100193.88;1601454;87;21070;-61
2022/04/12 10:42:36;;;;;;;2.27;0.80;;;;;;;12.16;48.42;100194.06;1600413;87;21148;-60
2022/04/12 10:45:06;;;;;;;1.87;0.70;;;;;;;12.28;48.38;100196.09;1597880;87;21111;-60
2022/04/12 10:47:38;;;;;;;1.10;0.72;;;;;;;12.40;48.02;100192.52;1599444;88;21192;-60
2022/04/12 10:50:12;;;;;;;1.60;1.00;;;;;;;12.35;47.65;100191.44;1595761;86;21273;-62
2022/04/12 10:52:59;;;;;;;4.83;1.42;;;;;;;12.12;45.50;100189.87;1597154;88;21667;-61
2022/04/12 10:55:28;;;;;;;3.50;0.85;;;;;;;11.57;46.21;100188.42;1582679;88;21219;-61
2022/04/12 10:58:22;;;;;;;3.02;0.85;;;;;;;11.38;46.96;100185.28;1583061;89;21158;-61
2022/04/12 11:00:53;;;;;;;2.27;0.98;;;;;;;11.60;47.44;100192.20;1581805;89;21368;-60
2022/04/12 11:03:45;;;;;;;4.00;1.17;;;;;;;11.88;47.41;100193.63;1582022;89;21593;-61
2022/04/12 11:06:28;;;;;;;1.70;0.70;;;;;;;12.08;47.18;100190.95;1575448;89;21037;-61
2022/04/12 11:09:17;;;;;;;2.12;1.05;;;;;;;12.23;46.85;100188.91;1620801;84;21560;-61
2022/04/12 11:11:49;;;;;;;3.42;0.90;;;;;;;12.25;47.00;100192.31;1672754;85;21009;-62
2022/04/12 11:14:39;;;;;;;2.67;0.75;;;;;;;12.35;46.96;100185.33;1673197;83;21983;-62
2022/04/12 11:17:22;;;;;;;1.67;0.80;;;;;;;12.42;46.82;100185.44;1641680;85;21016;-60
2022/04/12 11:19:54;;;;;;;1.87;0.90;;;;;;;12.47;46.59;100182.99;1675723;85;21099;-61
2022/04/12 11:22:34;;;;;;;1.92;0.75;;;;;;;12.31;45.02;100186.78;1639774;85;21040;-61
2022/04/12 11:25:20;;;;;;;3.00;0.82;;;;;;;12.02;45.85;100188.61;1662784;84;21560;-62
2022/04/12 11:27:57;;;;;;;1.70;0.70;;;;;;;11.98;46.12;100184.42;1683295;82;21151;-62
2022/04/12 11:30:28;;;;;;;2.97;1.00;;;;;;;12.09;46.08;100175.62;1668930;84;20925;-62
2022/04/12 11:33:00;;;;;;;2.27;0.85;;;;;;;12.18;46.17;100176.48;1664177;84;21926;-60
2022/04/12 11:35:28;;;;;;;2.30;0.90;;;;;;;12.30;46.38;100172.47;1664325;83;21596;-61
2022/04/12 11:37:56;;;;;;;1.47;0.70;;;;;;;12.42;46.05;100171.04;1645293;84;21092;-61
2022/04/12 11:40:26;;;;;;;3.12;0.60;;;;;;;12.54;46.06;100173.06;1670501;84;21177;-60